首页
METAR-TAF:

METAR-TAF

机场 :

迪奥里·哈马尼国际机场

尼亞美, 尼日尔

纬度: 13-29N, 经度: 002-10E, 海拔: 223米

当前天气观测

该预报发布于35分钟前的19:00 UTC
风速3节,风向西转西南
温度 39°C
湿度 20%
气压 1007 hPa
能見度: 4500
浮尘

METAR: DRRN 231900Z 24003KT 4500 DU NSC 39/12 Q1007 TEMPO TS FEW040CB

时间: 20:35 (19:35 UTC)

预报

该预报发布于2小时和35分钟前的17:00 UTC
预报有效从23日的 18点(UTC)到 24日的 24点(UTC)
风速5节,风向南转西南
能見度: 4000
少量云层高于3500英尺
浮尘
短暂存在
从 23日的 19点(UTC)到 23日的 24点(UTC)
风速15节,风向北转东北,有时为35节阵风
能見度: 1000
散云层高于3300英尺
少量云层高于4500英尺, 积雨云.
高吹尘, 雷暴, 雨

TAF: DRRN 231700Z 2318/2424 20005KT 4000 DU FEW035 TEMPO 2319/2324 02015G35KT 1000 BLDU TSRA SCT033 FEW045CB

超过4000个机场的气象观测和天气预报(METAR&TAF报告)。

可查询的气象台以黄色和红色小点在地图上表示。

将鼠标移到小点上方,可查看气象台名称。

然后点击查看天气观测和预报。

如需切换地图:点击带黑十字的绿色按钮放大地图;点击带横线的绿色按钮缩小地图;或者点击绿色箭头查看邻近地区的地图。


METAR-TAF: